West Des Moines, IA

6:17 PM CST on February 01, 2015 (GMT -0600)
Norwalk, IA (2mi SW) | Change Station
CLOSE
Current Station
Personal Weather Station
Location: Norwalk, IA
Elevation: 919 ft
Nearby Weather Stations
Active Advisory: Winter Storm Warning Active Notice: Record Report

Elev 919 ft 41.46 °N, 93.71 °W | Updated 16 seconds ago

Snow
Snow
14.0 °F
Feels Like -1 °F
N
15.0
Wind Variable Wind from North
Gusts 15.0 mph

Today
High -- | Low -- °F
--% Chance of Precip.
Yesterday
High -- | Low -- °F
Precip. -- in
7:26 AM 5:30 PM
Waxing Gibbous, 96% visible
Pressure 30.13 in
Visibility 3.0 miles
Clouds Mostly Cloudy 1700 ft
Overcast 3400 ft
Windchill -1 °F
Dew Point 13 °F
Humidity 95%
Rainfall 0.03 in
Snow Depth Not available.
UV 0 out of 12
Pollen .10 out of 12
Air Quality Not available.
Flu Activity Not available.
METAR KDSM 012354Z 01017G27KT 3SM -SN BLSN BKN017 OVC034 M09/M12 A3010 RMK AO2 PK WND 01031/2301 SFC VIS 3 SLP203 4/010 P0000 60001 T10891122 11056 21089 53041 $

More Conditions Fewer Conditions

Pressure 30.13 in
Visibility 3.0 miles
Clouds Mostly Cloudy 1700 ft
Overcast 3400 ft
Windchill -1 °F
Dew Point 13 °F
Humidity 95%
Rainfall 0.03 in
Snow Depth Not available.
UV 0 out of 12
Pollen .10 out of 12
Air Quality Not available.
Flu Activity Not available.
METAR KDSM 012354Z 01017G27KT 3SM -SN BLSN BKN017 OVC034 M09/M12 A3010 RMK AO2 PK WND 01031/2301 SFC VIS 3 SLP203 4/010 P0000 60001 T10891122 11056 21089 53041 $

More Conditions Fewer Conditions

10-Day Weather Forecast

Almanac

Astronomy

Feb. 01, 2015 Rise Set
Actual Time
Civil Twilight
Nautical Twilight
Astronomical Twilight
Moon
Length of Visible Light
Length of Day
Tomorrow will be .
, % of the Moon is Illuminated

Today's Extremes

State Highs State Lows

Community

WunderPhotos

Upload Photos

1,792,619 photos uploaded!

WunderBlogs® & News

Nearby

Air Quality

  Air Quality AQ Index Pollutant
Not available.

Snow Depth

Station Depth Elevation

Earthquake Activity

City Distance Mag. Time & Date
Minimum magnitude displayed is 2.5.

Coastal Water Temperatures

Place Temperature

Nearby Weather Stations